createdAt,value
2018-09-29T00:01:01.284Z,619
2018-09-29T00:02:08.491Z,620
2018-09-29T00:03:15.915Z,621
2018-09-29T00:04:23.160Z,622
2018-09-29T00:05:30.363Z,622
2018-09-29T00:06:37.564Z,621
2018-09-29T00:07:44.778Z,621
2018-09-29T00:08:51.707Z,620
2018-09-29T00:09:58.910Z,620
2018-09-29T00:11:06.116Z,621
2018-09-29T00:12:13.041Z,620
2018-09-29T00:13:20.241Z,621
2018-09-29T00:14:27.446Z,620
2018-09-29T00:15:34.647Z,620
2018-09-29T00:16:42.024Z,620
2018-09-29T00:17:48.958Z,620
2018-09-29T00:18:56.166Z,620
2018-09-29T00:20:03.099Z,620
2018-09-29T00:21:10.300Z,621
2018-09-29T00:22:17.503Z,621
2018-09-29T00:23:24.712Z,619
2018-09-29T00:24:31.914Z,622
2018-09-29T00:25:39.114Z,621
2018-09-29T00:26:46.318Z,622
2018-09-29T00:27:53.523Z,622
2018-09-29T00:29:00.742Z,621
2018-09-29T00:30:07.952Z,620
2018-09-29T00:31:15.158Z,622
2018-09-29T00:32:22.363Z,621
2018-09-29T00:33:29.567Z,622
2018-09-29T00:34:36.770Z,621
2018-09-29T00:35:43.977Z,621
2018-09-29T00:36:51.175Z,620
2018-09-29T00:37:58.377Z,620
2018-09-29T00:39:05.584Z,620
2018-09-29T00:40:12.786Z,621
2018-09-29T00:41:19.988Z,620
2018-09-29T00:42:26.921Z,621
2018-09-29T00:43:34.133Z,620
2018-09-29T00:44:41.338Z,620
2018-09-29T00:45:48.538Z,621
2018-09-29T00:46:55.737Z,621
2018-09-29T00:48:02.947Z,622
2018-09-29T00:49:10.156Z,622
2018-09-29T00:50:17.365Z,622
2018-09-29T00:51:24.566Z,621
2018-09-29T00:52:31.501Z,621
2018-09-29T00:53:38.706Z,621
2018-09-29T00:54:45.910Z,620
2018-09-29T00:55:53.117Z,620
2018-09-29T00:57:00.321Z,619
2018-09-29T00:58:07.253Z,621
2018-09-29T00:59:14.459Z,620
2018-09-29T01:00:21.397Z,620
2018-09-29T01:01:28.595Z,618
2018-09-29T01:02:35.800Z,619
2018-09-29T01:03:43.005Z,620
2018-09-29T01:04:50.215Z,621
2018-09-29T01:05:57.415Z,621
2018-09-29T01:07:04.619Z,620
2018-09-29T01:08:11.831Z,620
2018-09-29T01:09:18.767Z,621
2018-09-29T01:10:25.972Z,621
2018-09-29T01:11:33.171Z,619
2018-09-29T01:12:40.378Z,619
2018-09-29T01:13:47.578Z,619
2018-09-29T01:14:54.785Z,619
2018-09-29T01:16:01.980Z,619
2018-09-29T01:17:09.181Z,619
2018-09-29T01:18:16.380Z,619
2018-09-29T01:19:23.315Z,619
2018-09-29T01:20:30.237Z,619
2018-09-29T01:21:37.443Z,619
2018-09-29T01:22:44.656Z,619
2018-09-29T01:23:51.855Z,618
2018-09-29T01:24:59.060Z,619
2018-09-29T01:26:06.615Z,618
2018-09-29T01:27:13.816Z,618
2018-09-29T01:28:21.028Z,617
2018-09-29T01:29:27.682Z,616
2018-09-29T01:30:34.884Z,617
2018-09-29T01:31:42.093Z,618
2018-09-29T01:32:49.292Z,617
2018-09-29T01:33:56.494Z,618
2018-09-29T01:35:03.693Z,617
2018-09-29T01:36:10.899Z,617
2018-09-29T01:37:18.102Z,617
2018-09-29T01:38:25.308Z,617
2018-09-29T01:39:32.508Z,618
2018-09-29T01:40:39.710Z,618
2018-09-29T01:41:46.911Z,617
2018-09-29T01:42:54.113Z,615
2018-09-29T01:44:01.317Z,616
2018-09-29T01:45:08.246Z,616
2018-09-29T01:46:15.178Z,617
2018-09-29T01:47:22.387Z,616
2018-09-29T01:48:29.588Z,616
2018-09-29T01:49:36.519Z,614
2018-09-29T01:50:43.722Z,615
2018-09-29T01:51:50.929Z,616
2018-09-29T01:52:58.129Z,615
2018-09-29T01:54:05.333Z,616
2018-09-29T01:55:12.539Z,616
2018-09-29T01:56:19.742Z,617
2018-09-29T01:57:26.944Z,616
2018-09-29T01:58:34.143Z,616
2018-09-29T01:59:41.355Z,615
2018-09-29T02:00:48.547Z,616
2018-09-29T02:01:55.751Z,615
2018-09-29T02:03:02.952Z,616
2018-09-29T02:04:10.155Z,616
2018-09-29T02:05:17.356Z,616
2018-09-29T02:06:24.555Z,617
2018-09-29T02:07:31.754Z,616
2018-09-29T02:08:38.958Z,616
2018-09-29T02:09:46.158Z,616
2018-09-29T02:10:53.363Z,615
2018-09-29T02:12:00.582Z,616
2018-09-29T02:13:07.784Z,616
2018-09-29T02:14:14.980Z,617
2018-09-29T02:15:21.906Z,616
2018-09-29T02:16:29.114Z,617
2018-09-29T02:17:36.316Z,615
2018-09-29T02:18:43.519Z,616
2018-09-29T02:19:50.726Z,615
2018-09-29T02:20:57.923Z,616
2018-09-29T02:22:05.125Z,618
2018-09-29T02:23:12.324Z,617
2018-09-29T02:24:19.255Z,617
2018-09-29T02:25:26.458Z,617
2018-09-29T02:26:33.383Z,616
2018-09-29T02:27:40.591Z,617
2018-09-29T02:28:47.896Z,615
2018-09-29T02:29:55.160Z,616
2018-09-29T02:31:02.362Z,615
2018-09-29T02:32:09.568Z,616
2018-09-29T02:33:16.770Z,617
2018-09-29T02:34:23.979Z,616
2018-09-29T02:35:31.204Z,617
2018-09-29T02:36:38.402Z,617
2018-09-29T02:37:45.607Z,615
2018-09-29T02:38:52.814Z,616
2018-09-29T02:40:00.022Z,614
2018-09-29T02:41:07.222Z,615
2018-09-29T02:42:13.876Z,616
2018-09-29T02:43:21.078Z,617
2018-09-29T02:44:28.282Z,617
2018-09-29T02:45:35.488Z,617
2018-09-29T02:46:42.685Z,617
2018-09-29T02:47:49.888Z,617
2018-09-29T02:48:57.093Z,617
2018-09-29T02:50:04.294Z,617
2018-09-29T02:51:11.499Z,616
2018-09-29T02:52:18.706Z,616
2018-09-29T02:53:25.922Z,617
2018-09-29T02:54:33.123Z,617
2018-09-29T02:55:40.323Z,617
2018-09-29T02:56:47.528Z,617
2018-09-29T02:57:54.728Z,617
2018-09-29T02:59:01.934Z,617
2018-09-29T03:00:09.136Z,615
2018-09-29T03:01:16.338Z,615
2018-09-29T03:02:23.544Z,615
2018-09-29T03:03:30.754Z,615
2018-09-29T03:04:38.022Z,613
2018-09-29T03:05:45.223Z,615
2018-09-29T03:06:52.429Z,615
2018-09-29T03:07:59.633Z,615
2018-09-29T03:09:06.827Z,614
2018-09-29T03:10:14.035Z,616
2018-09-29T03:11:21.235Z,615
2018-09-29T03:12:28.434Z,614
2018-09-29T03:13:35.661Z,614
2018-09-29T03:14:42.865Z,614
2018-09-29T03:15:50.064Z,615
2018-09-29T03:16:56.992Z,615
2018-09-29T03:18:04.197Z,615
2018-09-29T03:19:11.496Z,615
2018-09-29T03:20:18.805Z,615
2018-09-29T03:21:26.008Z,614
2018-09-29T03:22:33.226Z,615
2018-09-29T03:23:40.439Z,614
2018-09-29T03:24:47.636Z,615
2018-09-29T03:25:54.849Z,615
2018-09-29T03:27:02.050Z,615
2018-09-29T03:28:09.264Z,615
2018-09-29T03:29:16.475Z,615
2018-09-29T03:30:23.679Z,615
2018-09-29T03:31:31.054Z,615
2018-09-29T03:32:38.396Z,614
2018-09-29T03:33:45.596Z,615
2018-09-29T03:34:52.796Z,615
2018-09-29T03:35:59.996Z,615
2018-09-29T03:37:07.218Z,616
2018-09-29T03:38:14.405Z,616
2018-09-29T03:39:21.644Z,617
2018-09-29T03:40:28.848Z,615
2018-09-29T03:41:35.781Z,616
2018-09-29T03:42:43.002Z,615
2018-09-29T03:43:50.198Z,615
2018-09-29T03:44:57.399Z,615
2018-09-29T03:46:04.602Z,615
2018-09-29T03:47:11.801Z,616
2018-09-29T03:48:19.003Z,616
2018-09-29T03:49:26.207Z,615
2018-09-29T03:50:33.407Z,616
2018-09-29T03:51:40.612Z,617
2018-09-29T03:52:47.854Z,617
2018-09-29T03:53:55.052Z,617
2018-09-29T03:55:01.955Z,617
2018-09-29T03:56:09.163Z,619
2018-09-29T03:57:16.371Z,618
2018-09-29T03:58:23.572Z,615
2018-09-29T03:59:30.783Z,617
2018-09-29T04:00:37.985Z,616
2018-09-29T04:01:45.201Z,618
2018-09-29T04:02:52.405Z,617
2018-09-29T04:03:59.613Z,617
2018-09-29T04:05:06.554Z,616
2018-09-29T04:06:13.487Z,617
2018-09-29T04:07:20.414Z,616
2018-09-29T04:08:27.614Z,616
2018-09-29T04:09:34.817Z,616
2018-09-29T04:10:42.013Z,617
2018-09-29T04:11:49.219Z,616
2018-09-29T04:12:56.417Z,616
2018-09-29T04:14:03.616Z,616
2018-09-29T04:15:10.823Z,616
2018-09-29T04:16:18.044Z,617
2018-09-29T04:17:25.249Z,616
2018-09-29T04:18:32.456Z,616
2018-09-29T04:19:39.655Z,616
2018-09-29T04:20:46.861Z,615
2018-09-29T04:21:54.061Z,617
2018-09-29T04:23:00.989Z,616
2018-09-29T04:24:08.195Z,617
2018-09-29T04:25:15.398Z,616
2018-09-29T04:26:22.604Z,616
2018-09-29T04:27:29.805Z,615
2018-09-29T04:28:37.010Z,617
2018-09-29T04:29:44.234Z,616
2018-09-29T04:30:51.170Z,616
2018-09-29T04:31:58.372Z,615
2018-09-29T04:33:05.572Z,616
2018-09-29T04:34:12.787Z,616
2018-09-29T04:35:19.978Z,615
2018-09-29T04:36:27.185Z,615
2018-09-29T04:37:34.111Z,614
2018-09-29T04:38:41.038Z,615
2018-09-29T04:39:48.239Z,614
2018-09-29T04:40:55.444Z,614
2018-09-29T04:42:02.663Z,614
2018-09-29T04:43:10.035Z,613
2018-09-29T04:44:17.303Z,614
2018-09-29T04:45:24.235Z,613
2018-09-29T04:46:31.443Z,614
2018-09-29T04:47:38.668Z,613
2018-09-29T04:48:46.121Z,613
2018-09-29T04:49:53.364Z,613
2018-09-29T04:51:00.324Z,613
2018-09-29T04:52:07.248Z,612
2018-09-29T04:53:14.461Z,612
2018-09-29T04:54:21.686Z,611
2018-09-29T04:55:28.913Z,612
2018-09-29T04:56:36.133Z,613
2018-09-29T04:57:43.346Z,612
2018-09-29T04:58:50.563Z,612
2018-09-29T04:59:57.495Z,612
2018-09-29T05:01:04.706Z,612
2018-09-29T05:02:11.922Z,612
2018-09-29T05:03:19.134Z,611
2018-09-29T05:04:26.353Z,610
2018-09-29T05:05:33.567Z,612
2018-09-29T05:06:40.926Z,611
2018-09-29T05:07:48.174Z,611
2018-09-29T05:08:55.385Z,610
2018-09-29T05:10:02.600Z,612
2018-09-29T05:11:09.839Z,612
2018-09-29T05:12:17.052Z,610
2018-09-29T05:13:24.284Z,611
2018-09-29T05:14:31.520Z,611
2018-09-29T05:15:38.762Z,611
2018-09-29T05:16:45.972Z,610
2018-09-29T05:17:53.188Z,611
2018-09-29T05:19:00.408Z,610
2018-09-29T05:20:07.628Z,610
2018-09-29T05:21:14.575Z,609
2018-09-29T05:22:21.508Z,611
2018-09-29T05:23:28.736Z,610
2018-09-29T05:24:35.950Z,610
2018-09-29T05:25:43.167Z,610
2018-09-29T05:26:50.374Z,610
2018-09-29T05:27:57.304Z,610
2018-09-29T05:29:04.518Z,609
2018-09-29T05:30:11.454Z,610
2018-09-29T05:31:18.672Z,608
2018-09-29T05:32:25.893Z,609
2018-09-29T05:33:32.830Z,609
2018-09-29T05:34:40.246Z,609
2018-09-29T05:35:47.477Z,609
2018-09-29T05:36:54.688Z,611
2018-09-29T05:38:01.648Z,611
2018-09-29T05:39:08.869Z,608
2018-09-29T05:40:16.083Z,608
2018-09-29T05:41:23.306Z,607
2018-09-29T05:42:30.521Z,608
2018-09-29T05:43:37.723Z,608
2018-09-29T05:44:44.937Z,607
2018-09-29T05:45:52.157Z,609
2018-09-29T05:46:59.386Z,607
2018-09-29T05:48:06.634Z,607
2018-09-29T05:49:13.944Z,607
2018-09-29T05:50:21.145Z,606
2018-09-29T05:51:28.351Z,607
2018-09-29T05:52:35.557Z,606
2018-09-29T05:53:42.877Z,607
2018-09-29T05:54:50.121Z,608
2018-09-29T05:55:57.052Z,609
2018-09-29T05:57:04.264Z,610
2018-09-29T05:58:11.481Z,609
2018-09-29T05:59:18.693Z,609
2018-09-29T06:00:26.000Z,610
2018-09-29T06:01:33.284Z,610
2018-09-29T06:02:40.489Z,610
2018-09-29T06:03:47.694Z,609
2018-09-29T06:04:54.921Z,610
2018-09-29T06:06:02.132Z,610
2018-09-29T06:07:09.687Z,611
2018-09-29T06:08:17.083Z,610
2018-09-29T06:09:24.021Z,610
2018-09-29T06:10:31.247Z,610
2018-09-29T06:11:38.460Z,609
2018-09-29T06:12:45.672Z,610
2018-09-29T06:13:52.899Z,610
2018-09-29T06:15:00.123Z,609
2018-09-29T06:16:07.095Z,608
2018-09-29T06:17:14.313Z,607
2018-09-29T06:18:21.254Z,607
2018-09-29T06:19:28.480Z,607
2018-09-29T06:20:35.448Z,607
2018-09-29T06:21:42.408Z,607
2018-09-29T06:22:49.642Z,606
2018-09-29T06:23:56.581Z,605
2018-09-29T06:25:03.805Z,606
2018-09-29T06:26:11.043Z,606
2018-09-29T06:27:18.004Z,605
2018-09-29T06:28:24.672Z,604
2018-09-29T06:29:31.908Z,604
2018-09-29T06:30:39.150Z,604
2018-09-29T06:31:46.369Z,603
2018-09-29T06:32:53.331Z,604
2018-09-29T06:34:00.551Z,604
2018-09-29T06:35:07.771Z,604
2018-09-29T06:36:15.038Z,603
2018-09-29T06:37:22.253Z,604
2018-09-29T06:38:29.507Z,603
2018-09-29T06:39:36.455Z,603
2018-09-29T06:40:43.895Z,602
2018-09-29T06:41:51.184Z,601
2018-09-29T06:42:58.416Z,601
2018-09-29T06:44:05.634Z,601
2018-09-29T06:45:12.844Z,601
2018-09-29T06:46:20.055Z,600
2018-09-29T06:47:27.281Z,599
2018-09-29T06:48:34.521Z,599
2018-09-29T06:49:41.730Z,600
2018-09-29T06:50:48.943Z,600
2018-09-29T06:51:56.354Z,600
2018-09-29T06:53:03.574Z,600
2018-09-29T06:54:10.520Z,599
2018-09-29T06:55:17.735Z,599
2018-09-29T06:56:24.949Z,599
2018-09-29T06:57:31.893Z,599
2018-09-29T06:58:39.106Z,599
2018-09-29T06:59:46.326Z,599
2018-09-29T07:00:53.561Z,598
2018-09-29T07:02:00.778Z,598
2018-09-29T07:03:08.368Z,597
2018-09-29T07:04:15.829Z,598
2018-09-29T07:05:23.090Z,598
2018-09-29T07:06:30.047Z,597
2018-09-29T07:07:37.405Z,596
2018-09-29T07:08:44.643Z,597
2018-09-29T07:09:51.884Z,595
2018-09-29T07:10:59.097Z,595
2018-09-29T07:12:06.328Z,595
2018-09-29T07:13:13.562Z,596
2018-09-29T07:14:20.788Z,595
2018-09-29T07:15:27.732Z,595
2018-09-29T07:16:34.706Z,595
2018-09-29T07:17:41.935Z,595
2018-09-29T07:18:49.172Z,594
2018-09-29T07:19:56.412Z,594
2018-09-29T07:21:03.646Z,595
2018-09-29T07:22:10.861Z,593
2018-09-29T07:23:18.093Z,594
2018-09-29T07:24:25.307Z,594
2018-09-29T07:25:32.787Z,595
2018-09-29T07:26:40.194Z,595
2018-09-29T07:27:47.409Z,594
2018-09-29T07:28:54.659Z,594
2018-09-29T07:30:01.894Z,592
2018-09-29T07:31:09.121Z,592
2018-09-29T07:32:16.355Z,592
2018-09-29T07:33:23.588Z,593
2018-09-29T07:34:30.524Z,591
2018-09-29T07:35:37.759Z,591
2018-09-29T07:36:44.967Z,591
2018-09-29T07:37:52.214Z,591
2018-09-29T07:38:59.530Z,591
2018-09-29T07:40:06.493Z,591
2018-09-29T07:41:13.161Z,590
2018-09-29T07:42:20.371Z,591
2018-09-29T07:43:27.604Z,591
2018-09-29T07:44:34.549Z,590
2018-09-29T07:45:41.788Z,589
2018-09-29T07:46:49.006Z,589
2018-09-29T07:47:56.253Z,589
2018-09-29T07:49:03.346Z,589
2018-09-29T07:50:10.622Z,588
2018-09-29T07:51:17.848Z,588
2018-09-29T07:52:25.080Z,589
2018-09-29T07:53:32.315Z,588
2018-09-29T07:54:39.629Z,589
2018-09-29T07:55:46.735Z,587
2018-09-29T07:56:53.946Z,588
2018-09-29T07:58:00.887Z,588
2018-09-29T07:59:08.118Z,587
2018-09-29T08:00:15.333Z,588
2018-09-29T08:01:22.576Z,588
2018-09-29T08:02:29.795Z,588
2018-09-29T08:03:37.021Z,588
2018-09-29T08:04:44.239Z,587
2018-09-29T08:05:51.459Z,588
2018-09-29T08:06:58.695Z,586
2018-09-29T08:08:05.920Z,587
2018-09-29T08:09:13.512Z,586
2018-09-29T08:10:20.471Z,586
2018-09-29T08:11:27.734Z,586
2018-09-29T08:12:34.877Z,586
2018-09-29T08:13:42.112Z,586
2018-09-29T08:14:49.085Z,584
2018-09-29T08:15:56.057Z,584
2018-09-29T08:17:03.013Z,585
2018-09-29T08:18:10.237Z,584
2018-09-29T08:19:17.472Z,583
2018-09-29T08:20:24.449Z,584
2018-09-29T08:21:31.679Z,584
2018-09-29T08:22:38.914Z,584
2018-09-29T08:23:46.138Z,583
2018-09-29T08:24:53.082Z,583
2018-09-29T08:26:00.317Z,583
2018-09-29T08:27:07.289Z,583
2018-09-29T08:28:14.524Z,582
2018-09-29T08:29:21.739Z,582
2018-09-29T08:30:28.968Z,582
2018-09-29T08:31:36.200Z,583
2018-09-29T08:32:43.440Z,582
2018-09-29T08:33:50.672Z,582
2018-09-29T08:34:57.892Z,581
2018-09-29T08:36:04.839Z,581
2018-09-29T08:37:12.057Z,580
2018-09-29T08:38:19.280Z,582
2018-09-29T08:39:26.501Z,581
2018-09-29T08:40:33.715Z,582
2018-09-29T08:41:40.938Z,581
2018-09-29T08:42:48.181Z,581
2018-09-29T08:43:55.398Z,581
2018-09-29T08:45:02.635Z,580
2018-09-29T08:46:09.862Z,580
2018-09-29T08:47:17.117Z,580
2018-09-29T08:48:24.339Z,578
2018-09-29T08:49:31.555Z,579
2018-09-29T08:50:38.489Z,579
2018-09-29T08:51:45.704Z,578
2018-09-29T08:52:52.921Z,577
2018-09-29T08:54:00.143Z,577
2018-09-29T08:55:07.358Z,577
2018-09-29T08:56:14.293Z,577
2018-09-29T08:57:21.516Z,578
2018-09-29T08:58:28.732Z,578
2018-09-29T08:59:35.945Z,577
2018-09-29T09:00:43.190Z,578
2018-09-29T09:01:50.437Z,578
2018-09-29T09:02:57.675Z,577
2018-09-29T09:04:05.171Z,575
2018-09-29T09:05:12.569Z,575
2018-09-29T09:06:19.507Z,575
2018-09-29T09:07:26.725Z,574
2018-09-29T09:08:33.938Z,575
2018-09-29T09:09:41.144Z,576
2018-09-29T09:10:48.359Z,575
2018-09-29T09:11:55.583Z,575
2018-09-29T09:13:02.793Z,574
2018-09-29T09:14:10.009Z,574
2018-09-29T09:15:17.228Z,573
2018-09-29T09:16:24.459Z,573
2018-09-29T09:17:31.840Z,573
2018-09-29T09:18:39.067Z,573
2018-09-29T09:19:46.506Z,572
2018-09-29T09:20:53.448Z,571
2018-09-29T09:22:00.683Z,571
2018-09-29T09:23:08.083Z,572
2018-09-29T09:24:15.689Z,572
2018-09-29T09:25:23.100Z,571
2018-09-29T09:26:30.335Z,571
2018-09-29T09:27:37.582Z,571
2018-09-29T09:28:44.833Z,573
2018-09-29T09:29:52.193Z,574
2018-09-29T09:30:59.530Z,573
2018-09-29T09:32:06.758Z,572
2018-09-29T09:33:14.200Z,572
2018-09-29T09:34:21.414Z,573
2018-09-29T09:35:28.913Z,573
2018-09-29T09:36:36.143Z,573
2018-09-29T09:37:43.359Z,570
2018-09-29T09:38:50.603Z,571
2018-09-29T09:39:57.824Z,570
2018-09-29T09:41:05.058Z,570
2018-09-29T09:42:12.018Z,570
2018-09-29T09:43:19.264Z,570
2018-09-29T09:44:26.756Z,569
2018-09-29T09:45:33.992Z,569
2018-09-29T09:46:41.248Z,568
2018-09-29T09:47:48.191Z,568
2018-09-29T09:48:55.423Z,569
2018-09-29T09:50:02.635Z,568
2018-09-29T09:51:09.869Z,567
2018-09-29T09:52:17.111Z,567
2018-09-29T09:53:24.080Z,569
2018-09-29T09:54:31.300Z,570
2018-09-29T09:55:38.538Z,570
2018-09-29T09:56:45.762Z,568
2018-09-29T09:57:53.220Z,568
2018-09-29T09:59:00.461Z,566
2018-09-29T10:00:07.711Z,565
2018-09-29T10:01:14.946Z,565
2018-09-29T10:02:22.406Z,562
2018-09-29T10:03:29.626Z,560
2018-09-29T10:04:36.854Z,558
2018-09-29T10:05:44.079Z,557
2018-09-29T10:06:51.313Z,555
2018-09-29T10:07:58.536Z,556
2018-09-29T10:09:05.998Z,553
2018-09-29T10:10:13.229Z,550
2018-09-29T10:11:20.698Z,550
2018-09-29T10:12:27.923Z,551
2018-09-29T10:13:35.144Z,549
2018-09-29T10:14:42.375Z,547
2018-09-29T10:15:49.615Z,547
2018-09-29T10:16:56.854Z,545
2018-09-29T10:18:04.082Z,543
2018-09-29T10:19:11.317Z,540
2018-09-29T10:20:18.552Z,541
2018-09-29T10:21:25.804Z,541
2018-09-29T10:22:33.057Z,542
2018-09-29T10:23:40.297Z,543
2018-09-29T10:24:47.741Z,541
2018-09-29T10:25:54.695Z,541
2018-09-29T10:27:02.151Z,536
2018-09-29T10:28:09.375Z,537
2018-09-29T10:29:16.821Z,537
2018-09-29T10:30:24.068Z,540
2018-09-29T10:31:31.303Z,538
2018-09-29T10:32:38.555Z,536
2018-09-29T10:33:45.787Z,537
2018-09-29T10:34:53.032Z,534
2018-09-29T10:36:00.481Z,534
2018-09-29T10:37:07.714Z,533
2018-09-29T10:38:14.693Z,535
2018-09-29T10:39:21.978Z,535
2018-09-29T10:40:29.416Z,530
2018-09-29T10:41:36.647Z,529
2018-09-29T10:42:43.874Z,529
2018-09-29T10:43:51.097Z,526
2018-09-29T10:44:58.351Z,526
2018-09-29T10:46:05.585Z,524
2018-09-29T10:47:13.038Z,522
2018-09-29T10:48:20.259Z,527
2018-09-29T10:49:27.702Z,527
2018-09-29T10:50:34.934Z,529
2018-09-29T10:51:42.172Z,530
2018-09-29T10:52:49.183Z,528
2018-09-29T10:53:56.666Z,530
2018-09-29T10:55:03.884Z,526
2018-09-29T10:56:11.072Z,524
2018-09-29T10:57:18.301Z,524
2018-09-29T10:58:25.529Z,521
2018-09-29T10:59:32.499Z,523
2018-09-29T11:00:39.755Z,526
2018-09-29T11:01:46.980Z,525
2018-09-29T11:02:54.200Z,523
2018-09-29T11:04:01.448Z,520
2018-09-29T11:05:09.410Z,519
2018-09-29T11:06:16.965Z,520
2018-09-29T11:07:24.432Z,517
2018-09-29T11:08:31.657Z,515
2018-09-29T11:09:38.903Z,524
2018-09-29T11:10:46.122Z,526
2018-09-29T11:11:53.369Z,525
2018-09-29T11:13:00.600Z,526
2018-09-29T11:14:07.821Z,525
2018-09-29T11:15:15.050Z,525
2018-09-29T11:16:22.525Z,529
2018-09-29T11:17:29.748Z,526
2018-09-29T11:18:37.202Z,524
2018-09-29T11:19:44.421Z,524
2018-09-29T11:20:51.527Z,522
2018-09-29T11:21:58.810Z,520
2018-09-29T11:23:06.044Z,522
2018-09-29T11:24:12.984Z,520
2018-09-29T11:25:20.205Z,517
2018-09-29T11:26:27.174Z,516
2018-09-29T11:27:34.528Z,516
2018-09-29T11:28:41.496Z,515
2018-09-29T11:29:48.737Z,519
2018-09-29T11:30:55.966Z,516
2018-09-29T11:32:03.217Z,514
2018-09-29T11:33:10.163Z,511
2018-09-29T11:34:17.115Z,515
2018-09-29T11:35:24.336Z,516
2018-09-29T11:36:31.572Z,518
2018-09-29T11:37:38.810Z,516
2018-09-29T11:38:46.048Z,513
2018-09-29T11:39:53.293Z,514
2018-09-29T11:41:00.246Z,514
2018-09-29T11:42:07.464Z,516
2018-09-29T11:43:14.915Z,513
2018-09-29T11:44:22.133Z,512
2018-09-29T11:45:29.795Z,512
2018-09-29T11:46:37.014Z,514
2018-09-29T11:47:44.242Z,514
2018-09-29T11:48:51.481Z,512
2018-09-29T11:49:58.721Z,510
2018-09-29T11:51:05.975Z,509
2018-09-29T11:52:13.218Z,508
2018-09-29T11:53:20.171Z,509
2018-09-29T11:54:27.363Z,507
2018-09-29T11:55:34.312Z,507
2018-09-29T11:56:41.776Z,507
2018-09-29T11:57:48.994Z,506
2018-09-29T11:58:55.987Z,505
2018-09-29T12:00:03.212Z,507
2018-09-29T12:01:10.452Z,506
2018-09-29T12:02:18.125Z,504
2018-09-29T12:03:25.602Z,505
2018-09-29T12:04:32.566Z,504
2018-09-29T12:05:39.533Z,507
2018-09-29T12:06:46.762Z,504
2018-09-29T12:07:54.217Z,503
2018-09-29T12:09:01.520Z,509
2018-09-29T12:10:08.764Z,520
2018-09-29T12:11:15.990Z,513
2018-09-29T12:12:23.454Z,507
2018-09-29T12:13:30.708Z,504
2018-09-29T12:14:38.147Z,512
2018-09-29T12:15:45.381Z,514
2018-09-29T12:16:52.610Z,514
2018-09-29T12:17:59.848Z,516
2018-09-29T12:19:07.111Z,510
2018-09-29T12:20:14.351Z,507
2018-09-29T12:21:21.308Z,503
2018-09-29T12:22:28.898Z,503
2018-09-29T12:23:36.352Z,503
2018-09-29T12:24:43.986Z,501
2018-09-29T12:25:50.955Z,502
2018-09-29T12:26:58.196Z,503
2018-09-29T12:28:05.419Z,501
2018-09-29T12:29:12.396Z,496
2018-09-29T12:30:19.645Z,512
2018-09-29T12:31:26.863Z,513
2018-09-29T12:32:33.843Z,509
2018-09-29T12:33:40.796Z,508
2018-09-29T12:34:47.993Z,504
2018-09-29T12:35:54.668Z,503
2018-09-29T12:37:02.503Z,502
2018-09-29T12:38:09.489Z,499
2018-09-29T12:39:16.215Z,496
2018-09-29T12:40:22.902Z,496
2018-09-29T12:41:30.123Z,497
2018-09-29T12:42:37.148Z,502
2018-09-29T12:43:44.392Z,502
2018-09-29T12:44:50.836Z,508
2018-09-29T12:45:58.212Z,506
2018-09-29T12:47:04.325Z,505
2018-09-29T12:48:11.782Z,502
2018-09-29T12:49:18.726Z,502
2018-09-29T12:50:25.414Z,501
2018-09-29T12:51:32.264Z,501
2018-09-29T12:52:39.737Z,499
2018-09-29T12:53:46.171Z,500
2018-09-29T12:54:53.434Z,500
2018-09-29T12:56:00.385Z,504
2018-09-29T12:57:07.379Z,502
2018-09-29T12:58:14.063Z,502
2018-09-29T12:59:21.049Z,498
2018-09-29T13:00:28.289Z,498
2018-09-29T13:01:35.832Z,499
2018-09-29T13:02:42.521Z,501
2018-09-29T13:03:49.992Z,500
2018-09-29T13:04:56.940Z,496
2018-09-29T13:06:04.392Z,497
2018-09-29T13:07:11.338Z,496
2018-09-29T13:08:18.567Z,497
2018-09-29T13:09:25.814Z,493
2018-09-29T13:10:32.513Z,494
2018-09-29T13:11:39.489Z,499
2018-09-29T13:12:46.938Z,498
2018-09-29T13:13:54.172Z,501
2018-09-29T13:15:01.369Z,503
2018-09-29T13:16:08.598Z,503
2018-09-29T13:17:15.822Z,501
2018-09-29T13:18:23.070Z,498
2018-09-29T13:19:30.048Z,496
2018-09-29T13:20:37.304Z,500
2018-09-29T13:21:44.539Z,497
2018-09-29T13:22:51.940Z,498
2018-09-29T13:23:59.547Z,498
2018-09-29T13:25:06.813Z,499
2018-09-29T13:26:14.073Z,505
2018-09-29T13:27:21.305Z,509
2018-09-29T13:28:28.767Z,505
2018-09-29T13:29:36.267Z,504
2018-09-29T13:30:43.535Z,502
2018-09-29T13:31:50.944Z,499
2018-09-29T13:32:58.493Z,499
2018-09-29T13:34:05.728Z,497
2018-09-29T13:35:12.714Z,496
2018-09-29T13:36:19.954Z,503
2018-09-29T13:37:27.212Z,503
2018-09-29T13:38:34.463Z,501
2018-09-29T13:39:41.695Z,504
2018-09-29T13:40:48.950Z,504
2018-09-29T13:41:56.135Z,504
2018-09-29T13:43:03.111Z,503
2018-09-29T13:44:10.368Z,501
2018-09-29T13:45:17.598Z,501
2018-09-29T13:46:24.829Z,499
2018-09-29T13:47:32.077Z,502
2018-09-29T13:48:39.328Z,500
2018-09-29T13:49:46.578Z,501
2018-09-29T13:50:53.797Z,504
2018-09-29T13:52:01.064Z,504
2018-09-29T13:53:08.316Z,506
2018-09-29T13:54:15.545Z,504
2018-09-29T13:55:22.784Z,505
2018-09-29T13:56:30.019Z,502
2018-09-29T13:57:37.483Z,504
2018-09-29T13:58:44.716Z,503
2018-09-29T13:59:52.166Z,504
2018-09-29T14:00:59.403Z,505
2018-09-29T14:02:06.884Z,507
2018-09-29T14:03:14.177Z,504
2018-09-29T14:04:21.410Z,504
2018-09-29T14:05:28.646Z,504
2018-09-29T14:06:35.888Z,504
2018-09-29T14:07:43.114Z,502
2018-09-29T14:08:50.572Z,500
2018-09-29T14:09:57.802Z,506
2018-09-29T14:11:05.289Z,503
2018-09-29T14:12:12.243Z,504
2018-09-29T14:13:19.714Z,503
2018-09-29T14:14:26.941Z,504
2018-09-29T14:15:34.195Z,510
2018-09-29T14:16:41.417Z,509
2018-09-29T14:17:48.652Z,506
2018-09-29T14:18:55.610Z,508
2018-09-29T14:20:03.260Z,506
2018-09-29T14:21:10.606Z,506
2018-09-29T14:22:18.092Z,506
2018-09-29T14:23:25.320Z,505
2018-09-29T14:24:32.580Z,509
2018-09-29T14:25:39.821Z,509
2018-09-29T14:26:47.271Z,507
2018-09-29T14:27:54.516Z,507
2018-09-29T14:29:01.966Z,505
2018-09-29T14:30:09.475Z,504
2018-09-29T14:31:16.909Z,506
2018-09-29T14:32:24.136Z,503
2018-09-29T14:33:31.363Z,504
2018-09-29T14:34:38.614Z,506
2018-09-29T14:35:45.868Z,504
2018-09-29T14:36:53.170Z,502
2018-09-29T14:38:00.663Z,500
2018-09-29T14:39:07.899Z,500
2018-09-29T14:40:15.375Z,501
2018-09-29T14:41:22.625Z,505
2018-09-29T14:42:29.869Z,502
2018-09-29T14:43:36.843Z,503
2018-09-29T14:44:44.099Z,503
2018-09-29T14:45:51.141Z,500
2018-09-29T14:46:58.368Z,500
2018-09-29T14:48:05.642Z,503
2018-09-29T14:49:12.764Z,505
2018-09-29T14:50:20.004Z,505
2018-09-29T14:51:27.470Z,505
2018-09-29T14:52:34.427Z,502
2018-09-29T14:53:41.667Z,505
2018-09-29T14:54:48.916Z,506
2018-09-29T14:55:56.167Z,505
2018-09-29T14:57:03.395Z,505
2018-09-29T14:58:10.625Z,504
2018-09-29T14:59:17.860Z,503
2018-09-29T15:00:25.112Z,504
2018-09-29T15:01:32.340Z,504
2018-09-29T15:02:39.585Z,508
2018-09-29T15:03:46.543Z,512
2018-09-29T15:04:53.729Z,513
2018-09-29T15:06:00.980Z,512
2018-09-29T15:07:08.443Z,511
2018-09-29T15:08:15.677Z,512
2018-09-29T15:09:22.628Z,510
2018-09-29T15:10:29.882Z,511
2018-09-29T15:11:36.850Z,513
2018-09-29T15:12:44.090Z,512
2018-09-29T15:13:51.340Z,516
2018-09-29T15:14:58.564Z,516
2018-09-29T15:16:06.033Z,525
2018-09-29T15:17:13.258Z,532
2018-09-29T15:18:20.435Z,541
2018-09-29T15:19:27.671Z,542
2018-09-29T15:20:35.183Z,538
2018-09-29T15:21:42.720Z,537
2018-09-29T15:22:49.951Z,540
2018-09-29T15:23:57.192Z,538
2018-09-29T15:25:04.147Z,536
2018-09-29T15:26:11.593Z,539